Time;durP1;ratioP1;P1;durP2;ratioP2;P2;SDS_P1;SDS_P2;PMS_P1;PMS_P2;Temp;Humidity;BMP_temperature;BMP_pressure;BME280_temperature;BME280_humidity;BME280_pressure;Samples;Min_cycle;Max_cycle;Signal;HPM_P1;HPM_P2
2023/09/08 00:01:55;;;;;;;5.10;3.40;;;19.80;99.90;;;;;;7391744;19;20130;-76
2023/09/08 00:04:21;;;;;;;4.70;4.22;;;20.00;99.90;;;;;;7389094;19;20157;-76
2023/09/08 00:06:47;;;;;;;4.38;3.47;;;20.30;99.90;;;;;;7391437;19;20477;-76
2023/09/08 00:09:13;;;;;;;3.50;3.20;;;20.10;99.90;;;;;;7391400;19;20138;-76
2023/09/08 00:11:39;;;;;;;5.57;3.92;;;20.00;99.90;;;;;;7389579;19;20138;-75
2023/09/08 00:14:05;;;;;;;5.72;3.85;;;19.80;99.90;;;;;;7386918;19;20611;-76
2023/09/08 00:16:30;;;;;;;4.88;3.60;;;19.80;99.90;;;;;;7389147;19;20137;-76
2023/09/08 00:18:58;;;;;;;7.07;4.30;;;19.70;99.90;;;;;;7391333;19;20155;-75
2023/09/08 00:21:24;;;;;;;6.07;4.30;;;19.70;99.90;;;;;;7394077;19;20139;-76
2023/09/08 00:23:51;;;;;;;6.25;4.30;;;19.70;99.90;;;;;;7390726;19;20138;-76
2023/09/08 00:26:17;;;;;;;5.65;4.20;;;19.70;99.90;;;;;;7390830;19;20135;-76
2023/09/08 00:28:42;;;;;;;7.57;4.20;;;19.70;99.90;;;;;;7386008;19;20154;-76
2023/09/08 00:31:08;;;;;;;5.30;4.07;;;19.90;99.90;;;;;;7388886;19;20142;-76
2023/09/08 00:33:34;;;;;;;5.20;4.00;;;19.90;99.90;;;;;;7388692;19;20534;-75
2023/09/08 00:36:00;;;;;;;6.43;4.45;;;19.90;99.90;;;;;;7386226;19;20556;-76
2023/09/08 00:38:26;;;;;;;5.07;3.90;;;19.90;99.90;;;;;;7388683;19;20158;-76
2023/09/08 00:40:52;;;;;;;5.95;4.15;;;19.70;99.90;;;;;;7386226;19;20159;-76
2023/09/08 00:43:18;;;;;;;4.45;3.80;;;19.50;99.90;;;;;;7389812;19;20135;-76
2023/09/08 00:45:45;;;;;;;6.93;4.57;;;19.50;99.90;;;;;;7390125;19;20142;-76
2023/09/08 00:48:11;;;;;;;5.22;4.45;;;19.50;99.90;;;;;;7390781;19;20154;-76
2023/09/08 00:50:37;;;;;;;4.68;4.00;;;19.80;99.90;;;;;;7388596;19;20142;-76
2023/09/08 00:53:04;;;;;;;5.78;4.60;;;19.70;99.90;;;;;;7390245;19;20447;-76
2023/09/08 00:55:31;;;;;;;4.90;4.40;;;19.60;99.90;;;;;;7386863;19;20139;-76
2023/09/08 00:57:59;;;;;;;8.30;4.85;;;19.60;99.90;;;;;;7386447;19;20162;-76
2023/09/08 01:00:25;;;;;;;5.93;4.32;;;19.60;99.90;;;;;;7388915;19;20172;-76
2023/09/08 01:02:51;;;;;;;7.68;4.55;;;19.80;99.90;;;;;;7385447;19;20549;-77
2023/09/08 01:05:17;;;;;;;5.28;4.40;;;19.70;99.90;;;;;;7388351;19;20487;-76
2023/09/08 01:07:44;;;;;;;7.10;4.72;;;19.60;99.90;;;;;;7388049;19;20146;-75
2023/09/08 01:10:11;;;;;;;6.95;4.30;;;19.40;99.90;;;;;;7389893;19;20154;-76
2023/09/08 01:12:37;;;;;;;6.47;4.50;;;19.20;99.90;;;;;;7383132;19;20174;-75
2023/09/08 01:15:06;;;;;;;7.82;5.13;;;19.10;99.90;;;;;;7387762;19;20172;-76
2023/09/08 01:17:32;;;;;;;7.10;4.80;;;19.20;99.90;;;;;;7390456;19;20841;-75
2023/09/08 01:20:05;;;;;;;10.40;4.88;;;19.30;99.90;;;;;;7387266;19;20867;-75
2023/09/08 01:23:02;;;;;;;6.65;4.63;;;19.40;99.90;;;;;;7389892;19;20671;-75
2023/09/08 01:25:31;;;;;;;5.88;4.90;;;19.20;99.90;;;;;;7389442;19;20484;-76
2023/09/08 01:28:01;;;;;;;5.60;4.80;;;19.40;99.90;;;;;;7388337;19;20607;-76
2023/09/08 01:30:32;;;;;;;6.97;4.60;;;19.60;99.90;;;;;;7387082;19;20131;-76
2023/09/08 01:32:59;;;;;;;5.85;4.03;;;19.30;99.90;;;;;;7387599;19;20149;-76
2023/09/08 01:35:25;;;;;;;7.18;5.85;;;19.60;99.90;;;;;;7386964;19;20869;-76
2023/09/08 01:37:51;;;;;;;9.02;5.38;;;19.80;99.90;;;;;;7390783;19;20138;-76
2023/09/08 01:40:18;;;;;;;4.93;4.43;;;20.00;99.90;;;;;;7387630;19;20126;-76
2023/09/08 01:42:45;;;;;;;5.15;4.32;;;20.10;99.90;;;;;;7387073;19;20532;-76
2023/09/08 01:45:11;;;;;;;6.65;4.35;;;20.00;99.90;;;;;;7388604;19;20553;-76
2023/09/08 01:47:38;;;;;;;6.60;4.47;;;19.70;99.90;;;;;;7389248;19;20131;-76
2023/09/08 01:50:04;;;;;;;6.32;4.65;;;19.50;99.90;;;;;;7389679;19;20551;-76
2023/09/08 01:52:30;;;;;;;5.50;4.50;;;19.60;99.90;;;;;;7388063;19;20145;-75
2023/09/08 01:54:56;;;;;;;4.68;3.97;;;19.60;99.90;;;;;;7385289;19;20138;-75
2023/09/08 01:57:21;;;;;;;7.28;4.28;;;19.60;99.90;;;;;;7388227;19;20122;-75
2023/09/08 01:59:50;;;;;;;7.55;5.05;;;19.60;99.90;;;;;;7387600;19;20541;-75
2023/09/08 02:02:16;;;;;;;7.28;4.25;;;19.50;99.90;;;;;;7385842;19;20153;-76
2023/09/08 02:04:42;;;;;;;6.35;4.13;;;19.50;99.90;;;;;;7384925;19;20263;-76
2023/09/08 02:07:08;;;;;;;4.80;4.07;;;19.30;99.90;;;;;;7387437;19;20131;-75
2023/09/08 02:09:36;;;;;;;5.43;4.07;;;19.30;99.90;;;;;;7388555;19;20131;-76
2023/09/08 02:12:03;;;;;;;6.38;4.05;;;19.40;99.90;;;;;;7386091;19;20134;-76
2023/09/08 02:14:29;;;;;;;6.30;4.18;;;19.10;99.90;;;;;;7386358;19;20134;-76
2023/09/08 02:16:56;;;;;;;4.60;4.20;;;19.10;99.90;;;;;;7388526;19;20608;-76
2023/09/08 02:19:22;;;;;;;4.78;3.97;;;19.00;99.90;;;;;;7388881;19;21876;-76
2023/09/08 02:21:48;;;;;;;5.28;4.18;;;19.00;99.90;;;;;;7387671;19;20258;-76
2023/09/08 02:24:14;;;;;;;6.75;4.20;;;19.10;99.90;;;;;;7394378;19;20142;-76
2023/09/08 02:26:40;;;;;;;5.10;4.38;;;19.10;99.90;;;;;;7394974;19;20161;-75
2023/09/08 02:29:07;;;;;;;5.78;4.47;;;19.00;99.90;;;;;;7392966;19;20540;-76
2023/09/08 02:31:33;;;;;;;5.97;4.05;;;18.80;99.90;;;;;;7393813;19;20146;-75
2023/09/08 02:33:59;;;;;;;4.93;4.13;;;18.80;99.90;;;;;;7390010;19;20257;-76
2023/09/08 02:36:26;;;;;;;4.57;3.85;;;18.70;99.90;;;;;;7394066;19;20131;-75
2023/09/08 02:38:52;;;;;;;4.93;4.30;;;18.80;99.90;;;;;;7391874;19;20579;-76
2023/09/08 02:41:18;;;;;;;4.65;4.10;;;18.90;99.90;;;;;;7395460;19;20130;-76
2023/09/08 02:43:44;;;;;;;7.65;4.15;;;18.80;99.90;;;;;;7388820;19;20225;-76
2023/09/08 02:46:10;;;;;;;4.53;3.80;;;18.90;99.90;;;;;;7394102;19;20167;-76
2023/09/08 02:48:36;;;;;;;4.18;3.72;;;18.80;99.90;;;;;;7390177;19;20139;-77
2023/09/08 02:51:02;;;;;;;5.28;3.85;;;19.00;99.90;;;;;;7392179;19;20154;-76
2023/09/08 02:53:28;;;;;;;5.53;3.92;;;19.00;99.90;;;;;;7389497;19;20559;-77
2023/09/08 02:55:55;;;;;;;4.88;3.88;;;18.80;99.90;;;;;;7388388;19;20214;-76
2023/09/08 02:58:21;;;;;;;4.05;3.47;;;18.70;99.90;;;;;;7394911;19;20134;-76
2023/09/08 03:00:47;;;;;;;5.30;3.72;;;18.80;99.90;;;;;;7391137;19;20154;-74
2023/09/08 03:03:12;;;;;;;5.35;4.03;;;18.70;99.90;;;;;;7391486;19;20630;-76
2023/09/08 03:05:40;;;;;;;4.68;3.88;;;18.70;99.90;;;;;;7388204;19;20187;-76
2023/09/08 03:08:06;;;;;;;5.15;3.88;;;18.90;99.90;;;;;;7390800;19;20457;-75
2023/09/08 03:10:34;;;;;;;4.38;3.92;;;18.90;99.90;;;;;;7393279;19;20142;-75
2023/09/08 03:13:06;;;;;;;6.53;3.63;;;18.90;99.90;;;;;;7390095;19;20135;-75
2023/09/08 03:15:33;;;;;;;5.57;3.78;;;18.80;99.90;;;;;;7391575;19;20143;-75
2023/09/08 03:17:59;;;;;;;5.55;3.85;;;18.70;99.90;;;;;;7390448;19;20146;-77
2023/09/08 03:20:26;;;;;;;5.68;3.90;;;18.60;99.90;;;;;;7394416;19;20130;-75
2023/09/08 03:22:52;;;;;;;4.88;4.10;;;18.70;99.90;;;;;;7390530;19;20222;-75
2023/09/08 03:25:18;;;;;;;4.25;3.80;;;18.60;99.90;;;;;;7390455;19;20146;-75
2023/09/08 03:27:44;;;;;;;5.57;3.97;;;18.50;99.90;;;;;;7393165;19;20484;-76
2023/09/08 03:30:10;;;;;;;6.45;4.80;;;18.50;99.90;;;;;;7393111;19;20149;-75
2023/09/08 03:32:37;;;;;;;4.63;3.80;;;18.60;99.90;;;;;;7390252;19;20151;-77
2023/09/08 03:35:07;;;;;;;6.88;4.78;;;18.60;99.90;;;;;;7386213;19;20641;-75
2023/09/08 03:37:34;;;;;;;6.90;4.20;;;18.90;99.90;;;;;;7391665;19;20139;-75
2023/09/08 03:40:01;;;;;;;4.30;3.90;;;19.20;99.90;;;;;;7392147;19;20157;-75
2023/09/08 03:42:27;;;;;;;6.35;4.85;;;19.10;99.90;;;;;;7389500;19;20143;-75
2023/09/08 03:44:52;;;;;;;7.38;4.78;;;18.90;99.90;;;;;;7390305;19;20135;-76
2023/09/08 03:47:18;;;;;;;5.78;4.78;;;18.90;99.90;;;;;;7387733;19;20162;-75
2023/09/08 03:49:43;;;;;;;6.53;4.63;;;18.80;99.90;;;;;;7390524;19;20188;-75
2023/09/08 03:52:09;;;;;;;5.97;5.10;;;18.80;99.90;;;;;;7391555;19;20151;-76
2023/09/08 03:54:37;;;;;;;9.63;4.72;;;19.00;99.90;;;;;;7389898;19;20148;-76
2023/09/08 03:57:03;;;;;;;5.45;4.85;;;18.90;99.90;;;;;;7390466;19;20143;-75
2023/09/08 03:59:29;;;;;;;7.05;5.07;;;19.10;99.90;;;;;;7390656;19;20146;-76
2023/09/08 04:01:55;;;;;;;6.10;4.80;;;18.80;99.90;;;;;;7390697;19;20138;-76
2023/09/08 04:04:20;;;;;;;7.30;4.90;;;18.50;99.90;;;;;;7389325;19;20167;-76
2023/09/08 04:06:46;;;;;;;5.97;4.75;;;18.50;99.90;;;;;;7387770;19;20135;-76
2023/09/08 04:09:12;;;;;;;6.30;5.35;;;18.70;99.90;;;;;;7394374;19;20678;-76
2023/09/08 04:11:38;;;;;;;6.50;5.03;;;19.00;99.90;;;;;;7387223;19;20869;-76
2023/09/08 04:14:05;;;;;;;9.00;5.47;;;18.80;99.90;;;;;;7389581;19;20161;-76
2023/09/08 04:16:31;;;;;;;6.13;4.50;;;18.50;99.90;;;;;;7388374;19;20126;-76
2023/09/08 04:18:57;;;;;;;8.35;5.22;;;18.30;99.90;;;;;;7391055;19;20154;-75
2023/09/08 04:21:22;;;;;;;7.43;4.78;;;18.00;99.90;;;;;;7387793;19;20430;-76
2023/09/08 04:23:48;;;;;;;8.32;4.88;;;18.00;99.90;;;;;;7388378;19;20578;-75
2023/09/08 04:26:14;;;;;;;5.90;4.75;;;18.10;99.90;;;;;;7391269;19;20161;-76
2023/09/08 04:28:41;;;;;;;6.82;5.30;;;18.10;99.90;;;;;;7390087;19;20151;-76
2023/09/08 04:31:07;;;;;;;9.57;5.30;;;18.20;99.90;;;;;;7391743;19;20135;-76
2023/09/08 04:33:32;;;;;;;9.73;5.53;;;18.60;99.90;;;;;;7388732;19;20559;-75
2023/09/08 04:35:58;;;;;;;7.90;5.57;;;18.90;99.90;;;;;;7386522;19;20142;-75
2023/09/08 04:38:30;;;;;;;6.13;5.07;;;19.00;99.90;;;;;;7386491;19;20135;-75
2023/09/08 04:40:56;;;;;;;7.85;5.13;;;18.60;99.90;;;;;;7390812;19;20244;-76
2023/09/08 04:43:21;;;;;;;8.27;5.20;;;18.60;99.90;;;;;;7387969;19;20260;-78
2023/09/08 04:45:48;;;;;;;6.63;4.90;;;18.50;99.90;;;;;;7388481;19;20210;-77
2023/09/08 04:48:13;;;;;;;6.53;5.15;;;18.30;99.90;;;;;;7389792;19;20146;-77
2023/09/08 04:50:39;;;;;;;7.38;4.60;;;18.10;99.90;;;;;;7386443;19;20131;-77
2023/09/08 04:53:05;;;;;;;5.93;4.53;;;18.00;99.90;;;;;;7388542;19;20156;-76
2023/09/08 04:55:31;;;;;;;5.28;4.72;;;17.90;99.90;;;;;;7385857;19;20134;-76
2023/09/08 04:57:56;;;;;;;7.65;5.28;;;17.90;99.90;;;;;;7387547;19;20194;-76
2023/09/08 05:00:22;;;;;;;7.25;4.78;;;17.90;99.90;;;;;;7385543;19;20158;-76
2023/09/08 05:02:48;;;;;;;8.50;5.15;;;17.90;99.90;;;;;;7387854;19;20149;-76
2023/09/08 05:05:14;;;;;;;8.40;5.25;;;18.00;99.90;;;;;;7386667;19;20306;-77
2023/09/08 05:07:39;;;;;;;8.85;5.75;;;18.00;99.90;;;;;;7386759;19;20130;-77
2023/09/08 05:10:06;;;;;;;6.70;5.05;;;18.00;99.90;;;;;;7387490;19;20628;-76
2023/09/08 05:12:31;;;;;;;8.35;5.00;;;18.30;99.90;;;;;;7389668;19;20162;-77
2023/09/08 05:15:00;;;;;;;6.03;5.10;;;18.40;99.90;;;;;;7384526;19;20142;-76
2023/09/08 05:17:26;;;;;;;7.78;5.65;;;18.40;99.90;;;;;;7389181;19;20161;-76
2023/09/08 05:19:52;;;;;;;6.90;4.63;;;18.10;99.90;;;;;;7386484;19;20143;-76
2023/09/08 05:22:18;;;;;;;8.98;5.30;;;18.50;99.90;;;;;;7388582;19;20169;-76
2023/09/08 05:24:43;;;;;;;10.23;5.40;;;18.70;99.90;;;;;;7384372;19;20138;-76
2023/09/08 05:27:09;;;;;;;7.38;5.68;;;19.00;99.90;;;;;;7388429;19;20161;-76
2023/09/08 05:29:35;;;;;;;9.68;5.55;;;19.00;99.90;;;;;;7386606;19;20577;-76
2023/09/08 05:32:00;;;;;;;10.48;6.03;;;19.10;99.90;;;;;;7384201;19;20154;-75
2023/09/08 05:34:26;;;;;;;7.28;5.00;;;19.20;99.90;;;;;;7387109;19;20137;-75
2023/09/08 05:36:52;;;;;;;7.55;5.57;;;19.10;99.90;;;;;;7384509;19;20157;-75
2023/09/08 05:39:19;;;;;;;7.75;5.00;;;19.10;99.90;;;;;;7389695;19;20147;-76
2023/09/08 05:41:45;;;;;;;6.40;4.97;;;18.80;99.90;;;;;;7382729;19;20144;-75
2023/09/08 05:44:11;;;;;;;5.95;5.15;;;18.90;99.90;;;;;;7387124;19;20142;-75
2023/09/08 05:46:36;;;;;;;8.63;5.40;;;18.90;99.90;;;;;;7388070;19;20598;-75
2023/09/08 05:49:02;;;;;;;7.05;5.43;;;18.40;99.90;;;;;;7387403;19;20130;-75
2023/09/08 05:51:28;;;;;;;6.90;5.38;;;18.60;99.90;;;;;;7387961;19;20246;-76
2023/09/08 05:53:54;;;;;;;7.88;5.40;;;18.50;99.90;;;;;;7386060;19;20126;-76
2023/09/08 05:56:20;;;;;;;6.78;4.88;;;18.30;99.90;;;;;;7385129;19;20226;-76
2023/09/08 05:58:46;;;;;;;8.43;5.60;;;18.10;99.90;;;;;;7385097;19;20138;-78
2023/09/08 06:01:11;;;;;;;7.50;4.88;;;18.20;99.90;;;;;;7388411;19;20138;-76
2023/09/08 06:03:37;;;;;;;8.57;5.57;;;18.20;99.90;;;;;;7384381;19;20138;-74
2023/09/08 06:06:03;;;;;;;8.55;5.50;;;18.60;99.90;;;;;;7383075;19;20173;-75
2023/09/08 06:08:28;;;;;;;9.80;6.68;;;18.80;99.90;;;;;;7386565;19;20478;-74
2023/09/08 06:10:54;;;;;;;7.72;5.85;;;19.00;99.90;;;;;;7386317;19;20143;-74
2023/09/08 06:13:20;;;;;;;9.38;6.20;;;19.10;99.90;;;;;;7384875;19;20158;-74
2023/09/08 06:15:46;;;;;;;11.18;5.85;;;19.20;99.90;;;;;;7384822;19;20153;-75
2023/09/08 06:18:12;;;;;;;7.15;5.35;;;19.20;99.90;;;;;;7387450;19;20142;-76
2023/09/08 06:20:44;;;;;;;7.22;5.38;;;19.20;99.90;;;;;;7386202;19;20162;-77
2023/09/08 06:23:09;;;;;;;7.07;5.57;;;19.30;99.90;;;;;;7384347;19;20146;-78
2023/09/08 06:25:35;;;;;;;8.10;6.10;;;19.20;99.90;;;;;;7382981;19;20170;-78
2023/09/08 06:28:01;;;;;;;7.50;6.15;;;19.10;99.90;;;;;;7386501;19;20563;-77
2023/09/08 06:30:27;;;;;;;5.57;4.97;;;19.10;99.90;;;;;;7387186;19;20135;-78
2023/09/08 06:32:53;;;;;;;7.28;5.55;;;19.10;99.90;;;;;;7385258;19;20145;-77
2023/09/08 06:35:18;;;;;;;7.00;5.57;;;19.10;99.90;;;;;;7383942;19;20176;-77
2023/09/08 06:37:44;;;;;;;8.35;5.45;;;19.10;99.90;;;;;;7387816;19;20139;-76
2023/09/08 06:40:10;;;;;;;7.22;5.65;;;19.10;99.90;;;;;;7385465;19;20685;-77
2023/09/08 06:42:36;;;;;;;9.70;5.90;;;19.10;99.90;;;;;;7387289;19;20480;-77
2023/09/08 06:45:01;;;;;;;6.18;5.57;;;19.10;99.90;;;;;;7383842;19;20135;-77
2023/09/08 06:47:27;;;;;;;8.02;5.93;;;19.10;99.90;;;;;;7386231;19;20134;-77
2023/09/08 06:49:53;;;;;;;9.05;6.47;;;19.10;99.90;;;;;;7386044;19;20135;-77
2023/09/08 06:52:19;;;;;;;9.80;6.13;;;19.30;99.90;;;;;;7386262;19;20150;-77
2023/09/08 06:54:47;;;;;;;7.60;5.72;;;19.30;99.90;;;;;;7383667;19;20142;-77
2023/09/08 06:57:13;;;;;;;7.60;5.95;;;19.20;99.90;;;;;;7382353;19;20210;-77
2023/09/08 06:59:39;;;;;;;7.57;5.63;;;19.30;99.90;;;;;;7386080;19;20161;-77
2023/09/08 07:02:04;;;;;;;6.57;5.43;;;19.30;99.90;;;;;;7384328;19;20646;-77
2023/09/08 07:04:31;;;;;;;7.57;5.55;;;19.40;99.90;;;;;;7384792;19;20258;-77
2023/09/08 07:06:57;;;;;;;7.82;5.68;;;19.40;99.90;;;;;;7384121;19;20154;-77
2023/09/08 07:09:23;;;;;;;9.23;6.22;;;19.50;99.90;;;;;;7391721;19;20464;-78
2023/09/08 07:11:48;;;;;;;7.55;5.68;;;19.60;99.90;;;;;;7390799;19;20153;-77
2023/09/08 07:14:14;;;;;;;8.63;5.53;;;19.60;99.90;;;;;;7388832;19;20137;-76
2023/09/08 07:16:40;;;;;;;11.45;5.68;;;19.70;99.90;;;;;;7391379;19;20139;-80
2023/09/08 07:19:09;;;;;;;7.78;5.95;;;19.70;99.90;;;;;;7391271;19;20134;-82
2023/09/08 07:21:34;;;;;;;7.57;6.05;;;19.80;99.90;;;;;;7389291;19;20143;-82
2023/09/08 07:24:00;;;;;;;8.30;6.55;;;19.90;99.90;;;;;;7391301;19;20175;-80
2023/09/08 07:26:26;;;;;;;7.55;5.45;;;20.00;99.90;;;;;;7390202;19;20160;-79
2023/09/08 07:28:51;;;;;;;7.78;5.93;;;20.10;99.90;;;;;;7390973;19;20131;-79
2023/09/08 07:31:18;;;;;;;8.70;5.40;;;20.20;99.90;;;;;;7392224;19;20135;-78
2023/09/08 07:33:44;;;;;;;9.45;5.85;;;20.30;99.90;;;;;;7391614;19;20164;-78
2023/09/08 07:36:10;;;;;;;9.60;6.35;;;20.30;99.90;;;;;;7388683;19;20131;-78
2023/09/08 07:38:36;;;;;;;10.93;7.80;;;20.40;99.90;;;;;;7390171;19;20130;-78
2023/09/08 07:41:03;;;;;;;14.73;9.07;;;20.60;99.90;;;;;;7391008;19;20139;-78
2023/09/08 07:43:29;;;;;;;9.35;6.70;;;20.60;99.90;;;;;;7392769;19;20195;-78
2023/09/08 07:45:55;;;;;;;10.30;7.45;;;20.70;99.90;;;;;;7391090;19;20160;-78
2023/09/08 07:48:21;;;;;;;8.90;5.80;;;20.80;99.90;;;;;;7394521;19;20542;-79
2023/09/08 07:50:48;;;;;;;8.63;5.90;;;21.00;99.90;;;;;;7389017;19;20142;-82
2023/09/08 07:53:14;;;;;;;11.20;5.75;;;21.00;99.90;;;;;;7394037;19;20462;-80
2023/09/08 07:55:40;;;;;;;10.13;6.35;;;21.30;99.90;;;;;;7388527;19;20139;-79
2023/09/08 07:58:05;;;;;;;8.18;5.75;;;21.60;99.90;;;;;;7392288;19;20134;-80
2023/09/08 08:00:32;;;;;;;8.80;5.18;;;22.20;99.90;;;;;;7391872;19;20143;-79
2023/09/08 08:02:58;;;;;;;7.57;5.78;;;22.60;99.90;;;;;;7391403;19;20509;-79
2023/09/08 08:05:25;;;;;;;6.47;5.28;;;22.90;99.90;;;;;;7391184;19;20151;-79
2023/09/08 08:07:51;;;;;;;8.27;6.13;;;23.10;99.90;;;;;;7391573;19;20155;-79
2023/09/08 08:10:19;;;;;;;7.50;5.97;;;23.30;99.90;;;;;;7392476;19;20147;-78
2023/09/08 08:12:44;;;;;;;7.35;5.38;;;23.40;99.90;;;;;;7392371;19;20154;-79
2023/09/08 08:15:11;;;;;;;6.82;5.50;;;23.50;99.90;;;;;;7391486;19;20135;-78
2023/09/08 08:17:37;;;;;;;8.95;6.30;;;23.60;99.90;;;;;;7395737;19;20158;-78
2023/09/08 08:20:16;;;;;;;5.93;5.00;;;23.70;99.90;;;;;;7389051;19;20142;-75
2023/09/08 08:22:44;;;;;;;6.90;5.50;;;23.70;99.90;;;;;;7392953;19;20155;-79
2023/09/08 08:25:10;;;;;;;10.38;5.80;;;23.70;99.90;;;;;;7390879;19;20153;-78
2023/09/08 08:27:36;;;;;;;8.95;5.82;;;23.70;99.90;;;;;;7393193;19;20165;-78
2023/09/08 08:30:03;;;;;;;8.23;5.88;;;23.60;99.90;;;;;;7391886;19;20138;-78
2023/09/08 08:32:29;;;;;;;7.10;5.32;;;23.60;99.90;;;;;;7391383;19;20215;-79
2023/09/08 08:34:56;;;;;;;9.85;5.40;;;23.60;99.90;;;;;;7387163;19;20159;-79
2023/09/08 08:37:25;;;;;;;6.63;5.20;;;23.60;99.90;;;;;;7390189;19;20162;-78
2023/09/08 08:39:50;;;;;;;7.07;5.65;;;23.70;99.90;;;;;;7390051;19;20250;-78
2023/09/08 08:42:16;;;;;;;10.68;5.93;;;23.70;99.90;;;;;;7388689;19;20145;-78
2023/09/08 08:44:43;;;;;;;7.05;5.72;;;23.60;99.90;;;;;;7387686;19;20262;-77
2023/09/08 08:47:11;;;;;;;7.45;5.32;;;23.50;99.90;;;;;;7387710;19;20151;-79
2023/09/08 08:49:38;;;;;;;5.47;4.72;;;23.50;99.90;;;;;;7391049;19;20167;-77
2023/09/08 08:52:07;;;;;;;10.88;5.65;;;23.50;99.90;;;;;;7386044;19;20139;-80
2023/09/08 08:54:39;;;;;;;7.72;5.70;;;23.60;99.90;;;;;;7385957;19;20153;-76
2023/09/08 08:57:06;;;;;;;7.55;5.40;;;23.70;99.90;;;;;;7388892;19;20142;-76
2023/09/08 08:59:32;;;;;;;11.77;5.57;;;23.80;99.90;;;;;;7388719;19;20146;-78
2023/09/08 09:01:59;;;;;;;8.50;5.88;;;23.80;99.90;;;;;;7386799;19;20157;-77
2023/09/08 09:04:25;;;;;;;10.45;6.38;;;23.80;99.90;;;;;;7387278;19;20632;-78
2023/09/08 09:06:53;;;;;;;6.75;5.97;;;23.80;99.90;;;;;;7386402;19;20151;-76
2023/09/08 09:09:19;;;;;;;8.18;5.57;;;23.90;99.90;;;;;;7393859;19;20130;-79
2023/09/08 09:11:45;;;;;;;6.78;5.85;;;23.90;99.90;;;;;;7385240;19;20713;-77
2023/09/08 09:14:11;;;;;;;11.63;6.18;;;24.00;99.90;;;;;;7388393;19;20132;-77
2023/09/08 09:16:42;;;;;;;9.38;5.55;;;24.10;99.90;;;;;;7388488;19;20130;-79
2023/09/08 09:19:08;;;;;;;7.05;5.13;;;24.10;99.90;;;;;;7387472;19;20158;-77
2023/09/08 09:21:43;;;;;;;8.82;5.85;;;24.20;99.90;;;;;;7388458;19;20166;-75
2023/09/08 09:24:17;;;;;;;8.48;5.88;;;24.40;99.90;;;;;;7388197;19;20559;-76
2023/09/08 09:26:43;;;;;;;8.35;5.25;;;24.50;99.90;;;;;;7388465;19;20129;-79
2023/09/08 09:29:13;;;;;;;6.93;5.72;;;24.60;99.90;;;;;;7388138;19;20458;-78
2023/09/08 09:31:53;;;;;;;8.30;6.45;;;24.60;99.90;;;;;;7388991;19;20171;-75
2023/09/08 09:34:20;;;;;;;9.10;4.78;;;24.70;99.90;;;;;;7385469;19;20142;-77
2023/09/08 09:36:50;;;;;;;7.65;4.65;;;24.80;99.90;;;;;;7387490;19;20145;-76
2023/09/08 09:39:20;;;;;;;9.77;5.05;;;24.80;99.90;;;;;;7387130;19;20142;-77
2023/09/08 09:41:53;;;;;;;9.00;5.25;;;24.80;99.90;;;;;;7386006;19;20137;-75
2023/09/08 09:44:20;;;;;;;7.90;5.75;;;24.80;99.90;;;;;;7389303;19;20202;-75
2023/09/08 09:46:46;;;;;;;7.57;4.85;;;24.80;99.90;;;;;;7384958;19;20131;-75
2023/09/08 09:49:13;;;;;;;8.30;5.18;;;24.90;99.90;;;;;;7385963;19;20153;-79
2023/09/08 09:51:46;;;;;;;5.03;4.35;;;24.90;99.90;;;;;;7388099;19;20245;-74
2023/09/08 09:54:13;;;;;;;5.85;4.25;;;24.90;99.90;;;;;;7387007;19;20138;-75
2023/09/08 09:56:39;;;;;;;5.88;5.00;;;24.90;99.90;;;;;;7388020;19;20635;-75
2023/09/08 09:59:08;;;;;;;6.90;4.93;;;25.10;99.90;;;;;;7386037;19;20134;-75
2023/09/08 10:01:35;;;;;;;7.10;4.97;;;25.00;99.90;;;;;;7385182;19;20571;-76
2023/09/08 10:04:03;;;;;;;5.75;4.32;;;25.20;99.90;;;;;;7385772;19;20189;-76
2023/09/08 10:06:32;;;;;;;5.65;5.00;;;25.30;99.90;;;;;;7386761;19;20473;-75
2023/09/08 10:09:08;;;;;;;8.25;4.40;;;25.40;99.90;;;;;;7386941;19;20138;-76
2023/09/08 10:11:41;;;;;;;7.90;4.75;;;25.60;99.90;;;;;;7388434;19;20138;-75
2023/09/08 10:14:11;;;;;;;6.07;4.90;;;25.90;99.90;;;;;;7386081;19;20149;-76
2023/09/08 10:16:40;;;;;;;5.53;4.40;;;26.00;99.90;;;;;;7385512;19;20138;-76
2023/09/08 10:19:09;;;;;;;8.15;5.05;;;26.10;99.90;;;;;;7386519;19;20158;-76
2023/09/08 10:21:44;;;;;;;5.32;4.30;;;26.00;99.90;;;;;;7386353;19;20536;-75
2023/09/08 10:24:24;;;;;;;7.85;5.70;;;26.00;99.90;;;;;;7386222;19;20148;-74
2023/09/08 10:27:00;;;;;;;8.60;5.30;;;26.10;99.90;;;;;;7386517;19;20142;-74
2023/09/08 10:29:28;;;;;;;5.50;4.70;;;26.10;99.90;;;;;;7385359;19;20170;-75
2023/09/08 10:31:55;;;;;;;5.75;3.58;;;26.10;99.90;;;;;;7388030;19;20262;-75
2023/09/08 10:34:24;;;;;;;6.15;4.53;;;26.10;99.90;;;;;;7383115;19;20138;-75
2023/09/08 10:36:50;;;;;;;6.07;4.32;;;26.10;99.90;;;;;;7376297;19;20158;-75
2023/09/08 10:39:29;;;;;;;4.70;4.20;;;26.00;99.90;;;;;;7384476;19;20135;-75
2023/09/08 10:42:16;;;;;;;6.93;4.50;;;25.90;99.90;;;;;;7383267;19;20150;-76
2023/09/08 10:45:13;;;;;;;4.78;4.00;;;26.00;99.90;;;;;;7385082;19;20135;-75
2023/09/08 10:47:45;;;;;;;5.50;3.88;;;26.10;99.90;;;;;;7386014;19;20157;-76
2023/09/08 10:50:25;;;;;;;6.25;4.80;;;26.10;99.90;;;;;;7389441;19;20147;-77
2023/09/08 10:53:05;;;;;;;4.88;4.38;;;26.10;99.90;;;;;;7393210;19;20139;-76
2023/09/08 10:55:50;;;;;;;7.10;4.88;;;26.10;99.90;;;;;;7389425;19;20257;-74
2023/09/08 10:58:28;;;;;;;6.22;5.63;;;26.10;99.90;;;;;;7389789;19;20578;-75
2023/09/08 11:00:56;;;;;;;6.13;4.65;;;26.20;99.90;;;;;;7391215;19;20231;-76
2023/09/08 11:03:41;;;;;;;5.78;4.28;;;26.30;99.90;;;;;;7388656;19;20491;-76
2023/09/08 11:06:13;;;;;;;7.85;4.22;;;26.40;99.90;;;;;;7388050;19;20142;-76
2023/09/08 11:08:42;;;;;;;5.70;4.82;;;26.40;99.90;;;;;;7390695;19;20889;-76
2023/09/08 11:11:11;;;;;;;5.03;4.43;;;26.50;99.90;;;;;;7390504;19;20134;-75
2023/09/08 11:13:39;;;;;;;7.35;6.03;;;26.60;99.90;;;;;;7390242;19;21600;-75
2023/09/08 11:16:05;;;;;;;5.90;5.30;;;26.70;99.90;;;;;;7390288;19;20134;-75
2023/09/08 11:18:35;;;;;;;6.03;4.43;;;26.80;99.90;;;;;;7391915;19;20456;-75
2023/09/08 11:21:03;;;;;;;6.30;4.65;;;26.70;99.90;;;;;;7393067;19;20136;-73
2023/09/08 11:23:30;;;;;;;9.27;4.90;;;26.80;99.90;;;;;;7391829;19;20146;-76
2023/09/08 11:25:57;;;;;;;45.30;8.80;;;26.80;99.90;;;;;;7391338;19;20156;-77
2023/09/08 11:28:23;;;;;;;9.43;4.35;;;26.70;99.90;;;;;;7390682;19;20129;-75
2023/09/08 11:30:50;;;;;;;11.32;4.75;;;26.70;99.90;;;;;;7391652;19;20134;-75
2023/09/08 11:33:17;;;;;;;9.48;5.70;;;26.80;99.90;;;;;;7387999;19;20135;-75
2023/09/08 11:35:45;;;;;;;8.35;5.82;;;27.10;99.90;;;;;;7390091;19;20130;-75
2023/09/08 11:38:11;;;;;;;4.95;4.45;;;27.20;99.90;;;;;;7374276;19;20296;-75
2023/09/08 11:40:38;;;;;;;4.68;4.28;;;27.40;99.90;;;;;;7361999;19;20123;-76
2023/09/08 11:43:07;;;;;;;5.18;4.22;;;27.50;99.90;;;;;;7380418;19;20158;-75
2023/09/08 11:45:37;;;;;;;4.53;4.03;;;27.40;99.90;;;;;;7383924;19;20190;-76
2023/09/08 11:48:05;;;;;;;5.82;4.97;;;27.40;99.90;;;;;;7386190;19;20715;-74
2023/09/08 11:50:31;;;;;;;6.97;4.68;;;27.50;99.90;;;;;;7386960;19;20551;-76
2023/09/08 11:53:02;;;;;;;5.00;4.50;;;27.50;99.90;;;;;;7374403;19;20559;-75
2023/09/08 11:55:28;;;;;;;4.93;4.25;;;27.50;99.90;;;;;;7382261;19;20623;-76
2023/09/08 11:58:00;;;;;;;7.78;5.50;;;27.60;99.90;;;;;;7384661;19;20154;-76
2023/09/08 12:00:27;;;;;;;6.07;4.93;;;27.50;99.90;;;;;;7386019;19;20149;-75
2023/09/08 12:02:53;;;;;;;10.60;5.22;;;27.70;99.90;;;;;;7383529;19;20138;-76
2023/09/08 12:05:24;;;;;;;5.35;4.20;;;27.60;99.90;;;;;;7381409;19;20211;-75
2023/09/08 12:07:51;;;;;;;5.72;5.10;;;27.60;99.90;;;;;;7389842;19;20475;-75
2023/09/08 12:10:20;;;;;;;6.03;4.32;;;27.60;99.90;;;;;;7390540;19;20154;-75
2023/09/08 12:12:48;;;;;;;6.22;4.70;;;27.60;99.90;;;;;;7391645;19;20154;-75
2023/09/08 12:15:38;;;;;;;6.50;5.03;;;27.40;99.90;;;;;;7391964;19;20139;-76
2023/09/08 12:18:12;;;;;;;7.05;5.90;;;27.50;99.90;;;;;;7384217;19;20130;-76
2023/09/08 12:20:39;;;;;;;6.22;5.63;;;27.50;99.90;;;;;;7388424;19;20130;-75
2023/09/08 12:23:14;;;;;;;7.00;4.97;;;27.50;99.90;;;;;;7391651;19;20154;-75
2023/09/08 12:25:51;;;;;;;4.90;4.40;;;27.40;99.90;;;;;;7389688;19;20142;-76
2023/09/08 12:28:19;;;;;;;6.10;5.07;;;27.40;99.90;;;;;;7392668;19;20534;-75
2023/09/08 12:30:45;;;;;;;8.52;5.63;;;27.40;99.90;;;;;;7388890;19;20134;-78
2023/09/08 12:33:13;;;;;;;4.95;4.45;;;27.50;99.90;;;;;;7377806;19;20496;-78
2023/09/08 12:35:38;;;;;;;5.75;4.28;;;27.50;99.90;;;;;;7389998;19;20157;-78
2023/09/08 12:38:05;;;;;;;4.57;3.90;;;27.50;99.90;;;;;;7390639;19;20138;-78
2023/09/08 12:40:35;;;;;;;5.70;4.30;;;27.70;99.90;;;;;;7391620;19;20560;-78
2023/09/08 12:43:02;;;;;;;4.70;4.30;;;27.70;99.90;;;;;;7391007;19;20150;-78
2023/09/08 12:45:29;;;;;;;7.18;4.90;;;27.80;99.90;;;;;;7391741;19;20535;-79
2023/09/08 12:47:59;;;;;;;4.60;4.20;;;27.90;99.90;;;;;;7390379;19;20206;-79